sensor_id;sensor_type;location;lat;lon;timestamp;P1;durP1;ratioP1;P2;durP2;ratioP2
41903;SDS011;27586;51.124;4.182;2023-02-18T00:00:10;19.90;;;17.38;;
41903;SDS011;27586;51.124;4.182;2023-02-18T00:02:41;21.35;;;17.33;;
41903;SDS011;27586;51.124;4.182;2023-02-18T00:05:07;18.60;;;16.30;;
41903;SDS011;27586;51.124;4.182;2023-02-18T00:07:33;18.10;;;16.20;;
41903;SDS011;27586;51.124;4.182;2023-02-18T00:10:00;18.20;;;15.85;;
41903;SDS011;27586;51.124;4.182;2023-02-18T00:12:25;18.17;;;16.27;;
41903;SDS011;27586;51.124;4.182;2023-02-18T00:14:51;16.98;;;15.20;;
41903;SDS011;27586;51.124;4.182;2023-02-18T00:17:17;17.48;;;15.57;;
41903;SDS011;27586;51.124;4.182;2023-02-18T00:19:43;16.73;;;15.13;;
41903;SDS011;27586;51.124;4.182;2023-02-18T00:22:08;15.57;;;13.93;;
41903;SDS011;27586;51.124;4.182;2023-02-18T00:24:34;14.73;;;13.32;;
41903;SDS011;27586;51.124;4.182;2023-02-18T00:27:00;15.90;;;14.20;;
41903;SDS011;27586;51.124;4.182;2023-02-18T00:29:25;15.00;;;13.40;;
41903;SDS011;27586;51.124;4.182;2023-02-18T00:31:51;14.95;;;13.45;;
41903;SDS011;27586;51.124;4.182;2023-02-18T00:34:17;15.20;;;13.60;;
41903;SDS011;27586;51.124;4.182;2023-02-18T00:36:43;15.68;;;13.85;;
41903;SDS011;27586;51.124;4.182;2023-02-18T00:39:09;15.65;;;14.05;;
41903;SDS011;27586;51.124;4.182;2023-02-18T00:41:36;14.68;;;13.18;;
41903;SDS011;27586;51.124;4.182;2023-02-18T00:44:02;17.23;;;14.50;;
41903;SDS011;27586;51.124;4.182;2023-02-18T00:46:28;14.85;;;13.40;;
41903;SDS011;27586;51.124;4.182;2023-02-18T00:48:54;15.65;;;14.13;;
41903;SDS011;27586;51.124;4.182;2023-02-18T00:51:20;15.05;;;13.55;;
41903;SDS011;27586;51.124;4.182;2023-02-18T00:53:46;15.27;;;13.73;;
41903;SDS011;27586;51.124;4.182;2023-02-18T00:56:13;14.25;;;12.95;;
41903;SDS011;27586;51.124;4.182;2023-02-18T00:58:39;14.27;;;12.85;;
41903;SDS011;27586;51.124;4.182;2023-02-18T01:01:05;14.30;;;12.88;;
41903;SDS011;27586;51.124;4.182;2023-02-18T01:03:32;15.48;;;12.77;;
41903;SDS011;27586;51.124;4.182;2023-02-18T01:05:58;13.43;;;12.02;;
41903;SDS011;27586;51.124;4.182;2023-02-18T01:08:24;13.38;;;12.07;;
41903;SDS011;27586;51.124;4.182;2023-02-18T01:10:52;13.02;;;11.65;;
41903;SDS011;27586;51.124;4.182;2023-02-18T01:13:19;13.25;;;12.00;;
41903;SDS011;27586;51.124;4.182;2023-02-18T01:15:45;13.00;;;11.75;;
41903;SDS011;27586;51.124;4.182;2023-02-18T01:18:11;13.32;;;12.02;;
41903;SDS011;27586;51.124;4.182;2023-02-18T01:20:38;15.23;;;11.65;;
41903;SDS011;27586;51.124;4.182;2023-02-18T01:23:04;12.35;;;11.13;;
41903;SDS011;27586;51.124;4.182;2023-02-18T01:25:31;13.82;;;12.35;;
41903;SDS011;27586;51.124;4.182;2023-02-18T01:27:57;13.82;;;12.27;;
41903;SDS011;27586;51.124;4.182;2023-02-18T01:30:22;13.75;;;12.20;;
41903;SDS011;27586;51.124;4.182;2023-02-18T01:32:48;13.48;;;12.07;;
41903;SDS011;27586;51.124;4.182;2023-02-18T01:35:15;13.02;;;11.65;;
41903;SDS011;27586;51.124;4.182;2023-02-18T01:37:42;12.90;;;11.60;;
41903;SDS011;27586;51.124;4.182;2023-02-18T01:40:10;12.82;;;11.50;;
41903;SDS011;27586;51.124;4.182;2023-02-18T01:42:37;12.50;;;11.18;;
41903;SDS011;27586;51.124;4.182;2023-02-18T01:48:05;12.57;;;11.35;;
41903;SDS011;27586;51.124;4.182;2023-02-18T01:50:35;12.77;;;11.48;;
41903;SDS011;27586;51.124;4.182;2023-02-18T01:53:04;13.45;;;11.25;;
41903;SDS011;27586;51.124;4.182;2023-02-18T01:55:30;13.32;;;11.40;;
41903;SDS011;27586;51.124;4.182;2023-02-18T01:57:58;12.48;;;11.18;;
41903;SDS011;27586;51.124;4.182;2023-02-18T02:00:24;13.32;;;11.93;;
41903;SDS011;27586;51.124;4.182;2023-02-18T02:02:50;13.45;;;11.50;;
41903;SDS011;27586;51.124;4.182;2023-02-18T02:05:18;12.65;;;11.25;;
41903;SDS011;27586;51.124;4.182;2023-02-18T02:07:46;12.60;;;10.82;;
41903;SDS011;27586;51.124;4.182;2023-02-18T02:10:15;11.68;;;9.50;;
41903;SDS011;27586;51.124;4.182;2023-02-18T02:18:33;11.82;;;10.50;;
41903;SDS011;27586;51.124;4.182;2023-02-18T02:35:22;8.93;;;8.05;;
41903;SDS011;27586;51.124;4.182;2023-02-18T02:43:33;8.68;;;7.80;;
41903;SDS011;27586;51.124;4.182;2023-02-18T02:46:42;8.40;;;7.60;;
41903;SDS011;27586;51.124;4.182;2023-02-18T02:51:57;8.48;;;7.70;;
41903;SDS011;27586;51.124;4.182;2023-02-18T02:54:34;9.02;;;6.95;;
41903;SDS011;27586;51.124;4.182;2023-02-18T02:59:38;7.97;;;7.28;;
41903;SDS011;27586;51.124;4.182;2023-02-18T03:13:25;6.95;;;5.70;;
41903;SDS011;27586;51.124;4.182;2023-02-18T03:16:52;6.72;;;6.05;;
41903;SDS011;27586;51.124;4.182;2023-02-18T03:21:34;6.38;;;5.53;;
41903;SDS011;27586;51.124;4.182;2023-02-18T03:26:38;6.10;;;5.50;;
41903;SDS011;27586;51.124;4.182;2023-02-18T03:29:08;6.10;;;5.50;;
41903;SDS011;27586;51.124;4.182;2023-02-18T03:31:36;5.63;;;5.13;;
41903;SDS011;27586;51.124;4.182;2023-02-18T03:34:05;5.75;;;5.20;;
41903;SDS011;27586;51.124;4.182;2023-02-18T03:36:35;5.68;;;5.20;;
41903;SDS011;27586;51.124;4.182;2023-02-18T03:39:17;5.57;;;5.07;;
41903;SDS011;27586;51.124;4.182;2023-02-18T03:41:44;6.13;;;5.50;;
41903;SDS011;27586;51.124;4.182;2023-02-18T03:44:10;5.45;;;4.95;;
41903;SDS011;27586;51.124;4.182;2023-02-18T03:46:37;5.60;;;5.15;;
41903;SDS011;27586;51.124;4.182;2023-02-18T03:49:04;5.57;;;4.70;;
41903;SDS011;27586;51.124;4.182;2023-02-18T03:51:30;4.85;;;4.35;;
41903;SDS011;27586;51.124;4.182;2023-02-18T03:53:56;4.90;;;4.40;;
41903;SDS011;27586;51.124;4.182;2023-02-18T03:56:22;5.22;;;4.72;;
41903;SDS011;27586;51.124;4.182;2023-02-18T03:58:48;4.53;;;4.13;;
41903;SDS011;27586;51.124;4.182;2023-02-18T04:01:14;4.55;;;4.15;;
41903;SDS011;27586;51.124;4.182;2023-02-18T04:03:40;4.25;;;3.85;;
41903;SDS011;27586;51.124;4.182;2023-02-18T04:06:06;4.70;;;4.30;;
41903;SDS011;27586;51.124;4.182;2023-02-18T04:08:32;4.43;;;4.07;;
41903;SDS011;27586;51.124;4.182;2023-02-18T04:10:57;5.05;;;4.53;;
41903;SDS011;27586;51.124;4.182;2023-02-18T04:13:23;4.55;;;4.15;;
41903;SDS011;27586;51.124;4.182;2023-02-18T04:15:49;5.75;;;4.80;;
41903;SDS011;27586;51.124;4.182;2023-02-18T04:18:15;5.18;;;4.68;;
41903;SDS011;27586;51.124;4.182;2023-02-18T04:20:41;4.47;;;4.07;;
41903;SDS011;27586;51.124;4.182;2023-02-18T04:23:07;5.22;;;4.30;;
41903;SDS011;27586;51.124;4.182;2023-02-18T04:25:33;4.47;;;4.07;;
41903;SDS011;27586;51.124;4.182;2023-02-18T04:27:59;4.82;;;4.13;;
41903;SDS011;27586;51.124;4.182;2023-02-18T04:30:25;4.80;;;4.40;;
41903;SDS011;27586;51.124;4.182;2023-02-18T04:32:51;4.38;;;3.97;;
41903;SDS011;27586;51.124;4.182;2023-02-18T04:35:17;5.03;;;4.55;;
41903;SDS011;27586;51.124;4.182;2023-02-18T04:37:42;4.32;;;3.92;;
41903;SDS011;27586;51.124;4.182;2023-02-18T04:40:08;4.70;;;4.20;;
41903;SDS011;27586;51.124;4.182;2023-02-18T04:42:34;4.25;;;3.95;;
41903;SDS011;27586;51.124;4.182;2023-02-18T04:45:00;4.65;;;3.90;;
41903;SDS011;27586;51.124;4.182;2023-02-18T04:47:26;4.15;;;3.78;;
41903;SDS011;27586;51.124;4.182;2023-02-18T04:49:52;4.40;;;3.97;;
41903;SDS011;27586;51.124;4.182;2023-02-18T04:52:17;3.70;;;3.40;;
41903;SDS011;27586;51.124;4.182;2023-02-18T04:54:43;4.57;;;3.90;;
41903;SDS011;27586;51.124;4.182;2023-02-18T04:57:09;4.70;;;4.20;;
41903;SDS011;27586;51.124;4.182;2023-02-18T04:59:35;4.13;;;3.70;;
41903;SDS011;27586;51.124;4.182;2023-02-18T05:02:01;4.15;;;3.80;;
41903;SDS011;27586;51.124;4.182;2023-02-18T05:04:27;4.63;;;4.22;;
41903;SDS011;27586;51.124;4.182;2023-02-18T05:06:52;5.38;;;4.78;;
41903;SDS011;27586;51.124;4.182;2023-02-18T05:09:18;5.30;;;4.80;;
41903;SDS011;27586;51.124;4.182;2023-02-18T05:11:44;5.00;;;4.50;;
41903;SDS011;27586;51.124;4.182;2023-02-18T05:14:11;5.75;;;5.25;;
41903;SDS011;27586;51.124;4.182;2023-02-18T05:16:37;5.65;;;5.15;;
41903;SDS011;27586;51.124;4.182;2023-02-18T05:19:03;6.18;;;5.55;;
41903;SDS011;27586;51.124;4.182;2023-02-18T05:21:30;5.70;;;5.15;;
41903;SDS011;27586;51.124;4.182;2023-02-18T05:23:55;6.43;;;5.55;;
41903;SDS011;27586;51.124;4.182;2023-02-18T05:26:21;6.18;;;5.45;;
41903;SDS011;27586;51.124;4.182;2023-02-18T05:28:48;6.40;;;5.65;;
41903;SDS011;27586;51.124;4.182;2023-02-18T05:31:13;6.15;;;5.55;;
41903;SDS011;27586;51.124;4.182;2023-02-18T05:33:39;7.38;;;5.20;;
41903;SDS011;27586;51.124;4.182;2023-02-18T05:36:05;6.35;;;5.10;;
41903;SDS011;27586;51.124;4.182;2023-02-18T05:38:31;6.70;;;5.85;;
41903;SDS011;27586;51.124;4.182;2023-02-18T05:40:57;5.85;;;5.28;;
41903;SDS011;27586;51.124;4.182;2023-02-18T05:43:22;8.27;;;6.25;;
41903;SDS011;27586;51.124;4.182;2023-02-18T05:45:48;7.25;;;5.70;;
41903;SDS011;27586;51.124;4.182;2023-02-18T05:48:14;7.93;;;5.72;;
41903;SDS011;27586;51.124;4.182;2023-02-18T05:50:39;8.65;;;5.55;;
41903;SDS011;27586;51.124;4.182;2023-02-18T05:53:05;10.52;;;5.03;;
41903;SDS011;27586;51.124;4.182;2023-02-18T05:55:31;10.52;;;5.47;;
41903;SDS011;27586;51.124;4.182;2023-02-18T05:58:01;9.52;;;4.90;;
41903;SDS011;27586;51.124;4.182;2023-02-18T06:00:27;10.45;;;4.60;;
41903;SDS011;27586;51.124;4.182;2023-02-18T06:02:54;8.15;;;4.05;;
41903;SDS011;27586;51.124;4.182;2023-02-18T06:05:19;8.65;;;3.67;;
41903;SDS011;27586;51.124;4.182;2023-02-18T06:07:45;10.40;;;3.78;;
41903;SDS011;27586;51.124;4.182;2023-02-18T06:10:11;9.90;;;3.90;;
41903;SDS011;27586;51.124;4.182;2023-02-18T06:12:37;10.52;;;3.30;;
41903;SDS011;27586;51.124;4.182;2023-02-18T06:15:02;8.10;;;3.70;;
41903;SDS011;27586;51.124;4.182;2023-02-18T06:17:29;12.43;;;3.75;;
41903;SDS011;27586;51.124;4.182;2023-02-18T06:19:54;10.18;;;3.35;;
41903;SDS011;27586;51.124;4.182;2023-02-18T06:22:20;11.30;;;4.03;;
41903;SDS011;27586;51.124;4.182;2023-02-18T06:24:46;10.82;;;4.07;;
41903;SDS011;27586;51.124;4.182;2023-02-18T06:27:12;14.00;;;3.58;;
41903;SDS011;27586;51.124;4.182;2023-02-18T06:29:37;12.77;;;3.70;;
41903;SDS011;27586;51.124;4.182;2023-02-18T06:32:03;13.70;;;3.97;;
41903;SDS011;27586;51.124;4.182;2023-02-18T06:34:29;12.27;;;3.60;;
41903;SDS011;27586;51.124;4.182;2023-02-18T06:36:55;11.00;;;4.15;;
41903;SDS011;27586;51.124;4.182;2023-02-18T06:39:20;8.98;;;3.40;;
41903;SDS011;27586;51.124;4.182;2023-02-18T06:41:46;10.32;;;3.70;;
41903;SDS011;27586;51.124;4.182;2023-02-18T06:44:12;10.63;;;3.42;;
41903;SDS011;27586;51.124;4.182;2023-02-18T06:46:39;12.60;;;3.60;;
41903;SDS011;27586;51.124;4.182;2023-02-18T06:49:05;12.88;;;3.45;;
41903;SDS011;27586;51.124;4.182;2023-02-18T06:51:30;16.67;;;4.05;;
41903;SDS011;27586;51.124;4.182;2023-02-18T06:53:56;10.90;;;3.47;;
41903;SDS011;27586;51.124;4.182;2023-02-18T06:56:21;11.38;;;3.10;;
41903;SDS011;27586;51.124;4.182;2023-02-18T06:58:47;10.60;;;3.55;;
41903;SDS011;27586;51.124;4.182;2023-02-18T07:01:13;12.40;;;3.60;;
41903;SDS011;27586;51.124;4.182;2023-02-18T07:03:38;10.15;;;3.13;;
41903;SDS011;27586;51.124;4.182;2023-02-18T07:06:04;9.95;;;3.00;;
41903;SDS011;27586;51.124;4.182;2023-02-18T07:08:30;11.07;;;3.00;;
41903;SDS011;27586;51.124;4.182;2023-02-18T07:11:01;8.40;;;3.08;;
41903;SDS011;27586;51.124;4.182;2023-02-18T07:13:27;8.48;;;3.10;;
41903;SDS011;27586;51.124;4.182;2023-02-18T07:15:53;11.20;;;3.30;;
41903;SDS011;27586;51.124;4.182;2023-02-18T07:18:19;9.98;;;3.05;;
41903;SDS011;27586;51.124;4.182;2023-02-18T07:20:44;10.45;;;3.03;;
41903;SDS011;27586;51.124;4.182;2023-02-18T07:23:10;9.30;;;3.03;;
41903;SDS011;27586;51.124;4.182;2023-02-18T07:25:36;12.82;;;3.88;;
41903;SDS011;27586;51.124;4.182;2023-02-18T07:28:01;10.95;;;3.80;;
41903;SDS011;27586;51.124;4.182;2023-02-18T07:30:27;7.30;;;2.60;;
41903;SDS011;27586;51.124;4.182;2023-02-18T07:32:53;9.30;;;3.15;;
41903;SDS011;27586;51.124;4.182;2023-02-18T07:35:18;11.10;;;3.13;;
41903;SDS011;27586;51.124;4.182;2023-02-18T07:37:48;8.70;;;3.22;;
41903;SDS011;27586;51.124;4.182;2023-02-18T07:40:15;10.40;;;3.05;;
41903;SDS011;27586;51.124;4.182;2023-02-18T07:42:43;12.75;;;3.40;;
41903;SDS011;27586;51.124;4.182;2023-02-18T07:45:09;12.77;;;3.50;;
41903;SDS011;27586;51.124;4.182;2023-02-18T07:47:36;7.32;;;2.85;;
41903;SDS011;27586;51.124;4.182;2023-02-18T07:50:02;12.65;;;3.10;;
41903;SDS011;27586;51.124;4.182;2023-02-18T07:52:28;10.85;;;3.05;;
41903;SDS011;27586;51.124;4.182;2023-02-18T07:54:54;10.25;;;3.00;;
41903;SDS011;27586;51.124;4.182;2023-02-18T07:57:20;8.13;;;3.10;;
41903;SDS011;27586;51.124;4.182;2023-02-18T07:59:45;11.15;;;2.90;;
41903;SDS011;27586;51.124;4.182;2023-02-18T08:02:14;9.00;;;2.95;;
41903;SDS011;27586;51.124;4.182;2023-02-18T08:04:43;8.27;;;2.58;;
41903;SDS011;27586;51.124;4.182;2023-02-18T08:07:11;6.60;;;2.97;;
41903;SDS011;27586;51.124;4.182;2023-02-18T08:09:40;8.80;;;3.30;;
41903;SDS011;27586;51.124;4.182;2023-02-18T08:12:05;11.13;;;2.75;;
41903;SDS011;27586;51.124;4.182;2023-02-18T08:14:31;9.85;;;2.92;;
41903;SDS011;27586;51.124;4.182;2023-02-18T08:16:57;10.70;;;2.53;;
41903;SDS011;27586;51.124;4.182;2023-02-18T08:19:23;8.38;;;2.30;;
41903;SDS011;27586;51.124;4.182;2023-02-18T08:21:48;8.75;;;2.47;;
41903;SDS011;27586;51.124;4.182;2023-02-18T08:24:14;8.80;;;2.50;;
41903;SDS011;27586;51.124;4.182;2023-02-18T08:26:40;11.45;;;2.75;;
41903;SDS011;27586;51.124;4.182;2023-02-18T08:29:05;8.52;;;2.75;;
41903;SDS011;27586;51.124;4.182;2023-02-18T08:31:31;8.80;;;2.80;;
41903;SDS011;27586;51.124;4.182;2023-02-18T08:33:57;6.57;;;2.60;;
41903;SDS011;27586;51.124;4.182;2023-02-18T08:36:24;8.18;;;2.92;;
41903;SDS011;27586;51.124;4.182;2023-02-18T08:38:50;8.65;;;2.72;;
41903;SDS011;27586;51.124;4.182;2023-02-18T08:41:16;5.47;;;2.22;;
41903;SDS011;27586;51.124;4.182;2023-02-18T08:43:46;7.05;;;2.45;;
41903;SDS011;27586;51.124;4.182;2023-02-18T08:46:12;8.05;;;2.55;;
41903;SDS011;27586;51.124;4.182;2023-02-18T08:48:38;9.60;;;2.40;;
41903;SDS011;27586;51.124;4.182;2023-02-18T08:51:17;9.07;;;2.35;;
41903;SDS011;27586;51.124;4.182;2023-02-18T08:53:46;8.48;;;2.90;;
41903;SDS011;27586;51.124;4.182;2023-02-18T08:56:12;9.68;;;2.30;;
41903;SDS011;27586;51.124;4.182;2023-02-18T08:58:39;6.95;;;2.45;;
41903;SDS011;27586;51.124;4.182;2023-02-18T09:01:06;8.32;;;2.38;;
41903;SDS011;27586;51.124;4.182;2023-02-18T09:03:34;10.88;;;2.97;;
41903;SDS011;27586;51.124;4.182;2023-02-18T09:05:59;10.20;;;2.90;;
41903;SDS011;27586;51.124;4.182;2023-02-18T09:08:26;7.80;;;2.60;;
41903;SDS011;27586;51.124;4.182;2023-02-18T09:10:56;7.35;;;2.35;;
41903;SDS011;27586;51.124;4.182;2023-02-18T09:13:23;8.98;;;2.63;;
41903;SDS011;27586;51.124;4.182;2023-02-18T09:16:02;9.40;;;3.08;;
41903;SDS011;27586;51.124;4.182;2023-02-18T09:18:33;10.90;;;2.97;;
41903;SDS011;27586;51.124;4.182;2023-02-18T09:21:00;8.98;;;2.80;;
41903;SDS011;27586;51.124;4.182;2023-02-18T09:23:26;6.93;;;2.42;;
41903;SDS011;27586;51.124;4.182;2023-02-18T09:25:53;7.65;;;2.63;;
41903;SDS011;27586;51.124;4.182;2023-02-18T09:28:19;8.60;;;2.50;;
41903;SDS011;27586;51.124;4.182;2023-02-18T09:30:45;9.85;;;2.65;;
41903;SDS011;27586;51.124;4.182;2023-02-18T09:33:10;9.82;;;2.88;;
41903;SDS011;27586;51.124;4.182;2023-02-18T09:35:40;9.40;;;2.88;;
41903;SDS011;27586;51.124;4.182;2023-02-18T09:38:07;9.00;;;2.63;;
41903;SDS011;27586;51.124;4.182;2023-02-18T09:40:34;7.88;;;2.50;;
41903;SDS011;27586;51.124;4.182;2023-02-18T09:43:04;11.63;;;2.88;;
41903;SDS011;27586;51.124;4.182;2023-02-18T09:45:30;10.57;;;2.80;;
41903;SDS011;27586;51.124;4.182;2023-02-18T09:47:56;9.02;;;3.00;;
41903;SDS011;27586;51.124;4.182;2023-02-18T09:50:31;8.85;;;3.10;;
41903;SDS011;27586;51.124;4.182;2023-02-18T09:52:58;10.32;;;3.42;;
41903;SDS011;27586;51.124;4.182;2023-02-18T09:58:04;8.65;;;2.53;;
41903;SDS011;27586;51.124;4.182;2023-02-18T10:00:37;7.43;;;3.10;;
41903;SDS011;27586;51.124;4.182;2023-02-18T10:03:12;8.70;;;3.35;;
41903;SDS011;27586;51.124;4.182;2023-02-18T10:05:48;8.48;;;3.03;;
41903;SDS011;27586;51.124;4.182;2023-02-18T10:08:36;10.70;;;2.95;;
41903;SDS011;27586;51.124;4.182;2023-02-18T10:11:17;8.25;;;3.03;;
41903;SDS011;27586;51.124;4.182;2023-02-18T10:13:48;8.52;;;2.85;;
41903;SDS011;27586;51.124;4.182;2023-02-18T10:16:17;10.40;;;2.90;;
41903;SDS011;27586;51.124;4.182;2023-02-18T10:18:45;10.05;;;2.55;;
41903;SDS011;27586;51.124;4.182;2023-02-18T10:21:14;8.20;;;2.80;;
41903;SDS011;27586;51.124;4.182;2023-02-18T10:23:55;5.82;;;2.60;;
41903;SDS011;27586;51.124;4.182;2023-02-18T10:26:28;9.25;;;2.80;;
41903;SDS011;27586;51.124;4.182;2023-02-18T10:28:56;7.55;;;2.42;;
41903;SDS011;27586;51.124;4.182;2023-02-18T10:31:24;8.02;;;2.75;;
41903;SDS011;27586;51.124;4.182;2023-02-18T10:34:16;8.52;;;2.53;;
41903;SDS011;27586;51.124;4.182;2023-02-18T10:45:29;8.38;;;3.47;;
41903;SDS011;27586;51.124;4.182;2023-02-18T10:50:48;9.10;;;2.90;;
41903;SDS011;27586;51.124;4.182;2023-02-18T10:53:30;11.15;;;3.33;;
41903;SDS011;27586;51.124;4.182;2023-02-18T10:55:58;11.65;;;3.40;;
41903;SDS011;27586;51.124;4.182;2023-02-18T11:01:15;9.18;;;2.97;;
41903;SDS011;27586;51.124;4.182;2023-02-18T11:03:45;9.65;;;3.35;;
41903;SDS011;27586;51.124;4.182;2023-02-18T11:06:24;14.18;;;3.90;;
41903;SDS011;27586;51.124;4.182;2023-02-18T11:08:55;14.48;;;4.15;;
41903;SDS011;27586;51.124;4.182;2023-02-18T11:14:01;10.32;;;4.05;;
41903;SDS011;27586;51.124;4.182;2023-02-18T11:16:39;13.02;;;4.10;;
41903;SDS011;27586;51.124;4.182;2023-02-18T11:22:15;10.65;;;4.15;;
41903;SDS011;27586;51.124;4.182;2023-02-18T11:24:43;11.68;;;3.38;;
41903;SDS011;27586;51.124;4.182;2023-02-18T11:27:22;12.00;;;3.35;;
41903;SDS011;27586;51.124;4.182;2023-02-18T11:30:13;9.88;;;3.20;;
41903;SDS011;27586;51.124;4.182;2023-02-18T11:32:40;10.40;;;3.13;;
41903;SDS011;27586;51.124;4.182;2023-02-18T11:35:15;12.13;;;3.17;;
41903;SDS011;27586;51.124;4.182;2023-02-18T11:37:46;12.50;;;3.22;;
41903;SDS011;27586;51.124;4.182;2023-02-18T11:40:19;12.18;;;3.50;;
41903;SDS011;27586;51.124;4.182;2023-02-18T11:43:15;8.90;;;3.00;;
41903;SDS011;27586;51.124;4.182;2023-02-18T11:45:42;10.05;;;3.20;;
41903;SDS011;27586;51.124;4.182;2023-02-18T11:48:13;13.60;;;3.60;;
41903;SDS011;27586;51.124;4.182;2023-02-18T11:50:41;11.20;;;3.25;;
41903;SDS011;27586;51.124;4.182;2023-02-18T11:56:01;8.73;;;3.10;;
41903;SDS011;27586;51.124;4.182;2023-02-18T11:58:35;7.10;;;2.53;;
41903;SDS011;27586;51.124;4.182;2023-02-18T12:01:05;7.25;;;2.53;;
41903;SDS011;27586;51.124;4.182;2023-02-18T12:06:13;9.15;;;3.42;;
41903;SDS011;27586;51.124;4.182;2023-02-18T12:08:53;10.82;;;3.33;;
41903;SDS011;27586;51.124;4.182;2023-02-18T12:11:33;9.82;;;3.33;;
41903;SDS011;27586;51.124;4.182;2023-02-18T12:14:02;11.38;;;3.45;;
41903;SDS011;27586;51.124;4.182;2023-02-18T12:24:48;11.55;;;3.80;;
41903;SDS011;27586;51.124;4.182;2023-02-18T12:27:51;9.70;;;3.20;;
41903;SDS011;27586;51.124;4.182;2023-02-18T12:33:13;9.82;;;3.45;;
41903;SDS011;27586;51.124;4.182;2023-02-18T12:35:46;9.20;;;3.40;;
41903;SDS011;27586;51.124;4.182;2023-02-18T12:51:51;8.90;;;3.53;;
41903;SDS011;27586;51.124;4.182;2023-02-18T12:54:39;9.38;;;3.10;;
41903;SDS011;27586;51.124;4.182;2023-02-18T12:57:24;10.30;;;3.75;;
41903;SDS011;27586;51.124;4.182;2023-02-18T13:11:15;10.73;;;3.10;;
41903;SDS011;27586;51.124;4.182;2023-02-18T13:14:28;7.45;;;3.40;;
41903;SDS011;27586;51.124;4.182;2023-02-18T13:16:39;9.75;;;3.88;;
41903;SDS011;27586;51.124;4.182;2023-02-18T13:19:24;8.13;;;3.25;;
41903;SDS011;27586;51.124;4.182;2023-02-18T13:22:06;8.88;;;3.63;;
41903;SDS011;27586;51.124;4.182;2023-02-18T13:24:37;8.93;;;3.55;;
41903;SDS011;27586;51.124;4.182;2023-02-18T13:35:34;14.23;;;4.00;;
41903;SDS011;27586;51.124;4.182;2023-02-18T13:40:44;11.07;;;4.00;;
41903;SDS011;27586;51.124;4.182;2023-02-18T13:48:45;9.30;;;3.40;;
41903;SDS011;27586;51.124;4.182;2023-02-18T13:56:45;14.10;;;4.15;;
41903;SDS011;27586;51.124;4.182;2023-02-18T13:59:22;9.30;;;3.20;;
41903;SDS011;27586;51.124;4.182;2023-02-18T14:02:07;8.45;;;3.22;;
41903;SDS011;27586;51.124;4.182;2023-02-18T14:04:54;11.13;;;3.15;;
41903;SDS011;27586;51.124;4.182;2023-02-18T14:07:49;6.47;;;2.90;;
41903;SDS011;27586;51.124;4.182;2023-02-18T14:10:34;10.02;;;3.10;;
41903;SDS011;27586;51.124;4.182;2023-02-18T14:13:16;7.00;;;3.15;;
41903;SDS011;27586;51.124;4.182;2023-02-18T14:15:52;8.23;;;3.03;;
41903;SDS011;27586;51.124;4.182;2023-02-18T14:18:29;9.35;;;3.22;;
41903;SDS011;27586;51.124;4.182;2023-02-18T14:21:17;13.57;;;3.47;;
41903;SDS011;27586;51.124;4.182;2023-02-18T14:26:36;8.07;;;2.90;;
41903;SDS011;27586;51.124;4.182;2023-02-18T14:29:11;9.52;;;3.55;;
41903;SDS011;27586;51.124;4.182;2023-02-18T14:32:01;8.40;;;3.10;;
41903;SDS011;27586;51.124;4.182;2023-02-18T14:34:44;13.00;;;3.47;;
41903;SDS011;27586;51.124;4.182;2023-02-18T14:37:39;7.10;;;3.08;;
41903;SDS011;27586;51.124;4.182;2023-02-18T14:40:20;8.82;;;3.10;;
41903;SDS011;27586;51.124;4.182;2023-02-18T14:43:23;7.80;;;3.40;;
41903;SDS011;27586;51.124;4.182;2023-02-18T14:51:44;10.55;;;3.85;;
41903;SDS011;27586;51.124;4.182;2023-02-18T14:54:13;6.85;;;3.97;;
41903;SDS011;27586;51.124;4.182;2023-02-18T14:56:55;11.07;;;3.80;;
41903;SDS011;27586;51.124;4.182;2023-02-18T14:59:25;9.45;;;3.53;;
41903;SDS011;27586;51.124;4.182;2023-02-18T15:01:54;7.80;;;3.67;;
41903;SDS011;27586;51.124;4.182;2023-02-18T15:04:20;12.18;;;4.30;;
41903;SDS011;27586;51.124;4.182;2023-02-18T15:06:56;11.07;;;4.15;;
41903;SDS011;27586;51.124;4.182;2023-02-18T15:09:26;5.93;;;3.63;;
41903;SDS011;27586;51.124;4.182;2023-02-18T15:11:56;12.25;;;4.18;;
41903;SDS011;27586;51.124;4.182;2023-02-18T15:14:39;8.23;;;4.22;;
41903;SDS011;27586;51.124;4.182;2023-02-18T15:17:10;8.55;;;3.78;;
41903;SDS011;27586;51.124;4.182;2023-02-18T15:19:42;7.55;;;3.67;;
41903;SDS011;27586;51.124;4.182;2023-02-18T15:22:14;8.77;;;3.70;;
41903;SDS011;27586;51.124;4.182;2023-02-18T15:24:43;10.80;;;3.90;;
41903;SDS011;27586;51.124;4.182;2023-02-18T15:27:13;8.77;;;4.10;;
41903;SDS011;27586;51.124;4.182;2023-02-18T15:29:41;11.13;;;4.00;;
41903;SDS011;27586;51.124;4.182;2023-02-18T15:32:18;12.93;;;4.43;;
41903;SDS011;27586;51.124;4.182;2023-02-18T15:34:48;10.95;;;4.60;;
41903;SDS011;27586;51.124;4.182;2023-02-18T15:37:15;8.70;;;4.50;;
41903;SDS011;27586;51.124;4.182;2023-02-18T15:39:41;9.88;;;4.50;;
41903;SDS011;27586;51.124;4.182;2023-02-18T15:42:16;10.35;;;4.40;;
41903;SDS011;27586;51.124;4.182;2023-02-18T15:45:04;9.32;;;4.80;;
41903;SDS011;27586;51.124;4.182;2023-02-18T15:47:41;10.23;;;4.72;;
41903;SDS011;27586;51.124;4.182;2023-02-18T15:50:25;8.02;;;4.60;;
41903;SDS011;27586;51.124;4.182;2023-02-18T15:52:54;7.20;;;4.20;;
41903;SDS011;27586;51.124;4.182;2023-02-18T15:55:26;9.23;;;4.82;;
41903;SDS011;27586;51.124;4.182;2023-02-18T15:57:56;13.00;;;5.28;;
41903;SDS011;27586;51.124;4.182;2023-02-18T16:00:40;9.80;;;5.47;;
41903;SDS011;27586;51.124;4.182;2023-02-18T16:05:41;12.63;;;5.80;;
41903;SDS011;27586;51.124;4.182;2023-02-18T16:08:23;8.75;;;5.10;;
41903;SDS011;27586;51.124;4.182;2023-02-18T16:10:55;10.02;;;5.05;;
41903;SDS011;27586;51.124;4.182;2023-02-18T16:13:28;9.30;;;5.07;;
41903;SDS011;27586;51.124;4.182;2023-02-18T16:15:55;11.63;;;5.65;;
41903;SDS011;27586;51.124;4.182;2023-02-18T16:21:02;11.27;;;4.68;;
41903;SDS011;27586;51.124;4.182;2023-02-18T16:29:13;9.27;;;5.25;;
41903;SDS011;27586;51.124;4.182;2023-02-18T16:31:59;8.77;;;4.53;;
41903;SDS011;27586;51.124;4.182;2023-02-18T16:34:24;8.45;;;4.53;;
41903;SDS011;27586;51.124;4.182;2023-02-18T16:36:51;9.15;;;4.63;;
41903;SDS011;27586;51.124;4.182;2023-02-18T16:39:36;6.85;;;4.43;;
41903;SDS011;27586;51.124;4.182;2023-02-18T16:42:02;9.57;;;5.53;;
41903;SDS011;27586;51.124;4.182;2023-02-18T16:44:33;9.73;;;5.32;;
41903;SDS011;27586;51.124;4.182;2023-02-18T16:46:59;12.55;;;5.03;;
41903;SDS011;27586;51.124;4.182;2023-02-18T16:49:25;8.32;;;4.90;;
41903;SDS011;27586;51.124;4.182;2023-02-18T16:51:52;7.85;;;5.28;;
41903;SDS011;27586;51.124;4.182;2023-02-18T16:54:18;10.15;;;5.32;;
41903;SDS011;27586;51.124;4.182;2023-02-18T16:56:44;9.98;;;5.55;;
41903;SDS011;27586;51.124;4.182;2023-02-18T16:59:09;11.18;;;5.50;;
41903;SDS011;27586;51.124;4.182;2023-02-18T17:01:44;12.98;;;5.75;;
41903;SDS011;27586;51.124;4.182;2023-02-18T17:04:11;11.63;;;5.50;;
41903;SDS011;27586;51.124;4.182;2023-02-18T17:06:41;9.73;;;6.07;;
41903;SDS011;27586;51.124;4.182;2023-02-18T17:09:15;9.35;;;6.20;;
41903;SDS011;27586;51.124;4.182;2023-02-18T17:11:44;10.43;;;5.47;;
41903;SDS011;27586;51.124;4.182;2023-02-18T17:14:13;10.55;;;6.22;;
41903;SDS011;27586;51.124;4.182;2023-02-18T17:16:42;8.35;;;5.78;;
41903;SDS011;27586;51.124;4.182;2023-02-18T17:19:11;9.77;;;6.18;;
41903;SDS011;27586;51.124;4.182;2023-02-18T17:21:37;11.13;;;6.78;;
41903;SDS011;27586;51.124;4.182;2023-02-18T17:24:03;10.32;;;7.15;;
41903;SDS011;27586;51.124;4.182;2023-02-18T17:26:29;10.18;;;7.20;;
41903;SDS011;27586;51.124;4.182;2023-02-18T17:28:55;12.07;;;7.85;;
41903;SDS011;27586;51.124;4.182;2023-02-18T17:31:23;14.18;;;8.43;;